Latest Weather Observations for Cunderdin Airport

IDW60801

Issued at 2:35 pm WST Friday 25 July 2014 (issued every 30 minutes, with the page automatically refreshed every 10 minutes)

About weather observations | Map of weather stations | Latest weather observations for WA | Other Formats
Station Details ID: 010286 Name: CUNDERDIN AIRFIELD Lat: -31.62 Lon: 117.22 Height: 216.7 m
Data from the previous 72 hours. | See also: Recent months at Cunderdin Airport
Date/Time
WST
Temp
°C
App
Temp
°C
Dew
Point
Rel
Hum
%
Delta-T
°C
Wind Press
QNH
hPa
Press
MSL
hPa
Rain
since 9 am
mm
Dir
 
Spd
km/h
Gust
km/h
Spd
kts
Gust
kts
25/02:30pm 18.2 12.7 9.3 56 4.7 N 28 37 15 20 1019.0 - 0.0
25/02:00pm 18.6 13.8 10.2 58 4.5 N 26 35 14 19 1019.1 1019.3 0.0
25/01:30pm 18.0 12.6 9.6 58 4.5 N 28 37 15 20 1019.3 - 0.0
25/01:00pm 17.6 12.1 10.7 64 3.7 N 30 39 16 21 1019.7 1019.8 0.0
25/12:30pm 17.8 12.2 11.4 66 3.5 N 32 43 17 23 1020.2 - 0.0
25/12:00pm 17.4 12.6 11.7 69 3.1 N 28 39 15 21 1020.8 1021.0 0.0
25/11:30am 17.5 13.4 12.8 74 2.6 N 26 35 14 19 1021.1 - 0.0
25/11:00am 16.7 12.6 12.7 77 2.2 N 26 35 14 19 1021.4 1021.6 0.0
25/10:30am 16.1 12.4 12.7 80 1.9 N 24 30 13 16 1021.6 - 0.0
25/10:00am 15.0 10.7 12.0 82 1.6 N 26 35 14 19 1021.8 1022.0 0.0
25/09:30am 14.1 10.1 11.8 86 1.2 N 24 30 13 16 1022.0 - 0.0
25/09:00am 13.4 10.0 12.5 94 0.5 N 22 30 12 16 1021.8 1022.0 0.0
25/08:30am 12.0 12.1 11.5 97 0.3 NNE 2 13 1 7 1021.9 - 0.0
25/08:00am 9.8 8.3 9.3 97 0.2 ENE 7 9 4 5 1021.7 1021.9 0.0
25/07:30am 8.6 8.2 8.2 97 0.2 CALM 0 0 0 0 1021.8 - 0.0
25/07:00am 8.0 7.4 7.6 97 0.2 CALM 0 0 0 0 1021.6 1021.8 0.0
25/06:30am 6.9 6.1 6.3 96 0.3 CALM 0 0 0 0 1021.4 - 0.0
25/06:00am 7.0 6.2 6.4 96 0.3 SE 0 0 0 0 1021.1 1021.3 0.0
25/05:30am 7.5 5.6 6.9 96 0.3 E 6 7 3 4 1021.0 - 0.0
25/05:00am 7.5 5.5 6.9 96 0.3 E 7 9 4 5 1021.0 1021.2 0.0
25/04:30am 7.5 5.6 6.9 96 0.3 ESE 6 9 3 5 1021.3 - 0.0
25/04:00am 8.7 7.1 8.1 96 0.3 SE 6 7 3 4 1021.4 1021.6 0.0
25/03:30am 8.8 8.0 8.2 96 0.3 SE 2 7 1 4 1021.5 - 0.0
25/03:00am 9.5 9.3 8.9 96 0.3 CALM 0 0 0 0 1021.5 1021.7 0.0
25/02:30am 9.5 9.3 8.9 96 0.3 CALM 0 0 0 0 1021.7 - 0.0
25/02:00am 9.2 8.9 8.6 96 0.3 CALM 0 0 0 0 1021.8 1022.0 0.0
25/01:30am 8.6 8.1 8.0 96 0.3 CALM 0 0 0 0 1021.7 - 0.0
25/01:00am 9.5 8.9 8.9 96 0.3 SSW 2 6 1 3 1021.8 1022.0 0.0
25/12:30am 9.4 8.0 8.8 96 0.3 SSW 6 7 3 4 1021.8 - 0.0
25/12:00am 9.5 8.1 8.7 95 0.4 WSW 6 7 3 4 1022.0 1022.2 0.0
 
Date/Time
WST
Temp
°C
App
Temp
°C
Dew
Point
Rel
Hum
%
Delta-T
°C
Wind Press
QNH
hPa
Press
MSL
hPa
Rain
since 9 am
mm
Dir
 
Spd
km/h
Gust
km/h
Spd
kts
Gust
kts
24/11:30pm 9.0 7.4 8.2 95 0.4 WSW 6 7 3 4 1022.1 - 0.0
24/11:00pm 8.5 6.2 7.6 94 0.4 WNW 9 9 5 5 1022.2 1022.4 0.0
24/10:30pm 8.6 6.3 7.5 93 0.5 WNW 9 9 5 5 1022.4 - 0.0
24/10:00pm 9.1 7.3 8.0 93 0.5 W 7 9 4 5 1022.4 1022.6 0.0
24/09:30pm 9.3 7.5 7.9 91 0.7 NW 7 9 4 5 1022.2 - 0.0
24/09:00pm 10.4 10.1 8.8 90 0.8 CALM 0 0 0 0 1022.3 1022.5 0.0
24/08:30pm 11.2 11.1 9.6 90 0.8 CALM 0 0 0 0 1022.4 - 0.0
24/08:00pm 11.9 10.9 10.3 90 0.8 SW 6 9 3 5 1022.3 1022.5 0.0
24/07:30pm 12.4 10.8 10.3 87 1.1 W 9 11 5 6 1022.2 - 0.0
24/07:00pm 13.6 11.4 10.8 83 1.5 W 13 15 7 8 1022.0 1022.2 0.0
24/06:30pm 13.7 12.1 11.4 86 1.2 WNW 11 13 6 7 1021.7 - 0.0
24/06:00pm 14.6 13.5 10.8 78 2.0 W 7 9 4 5 1021.4 1021.6 0.0
24/05:30pm 15.4 15.2 11.8 79 2.0 W 4 11 2 6 1021.3 - 0.0
24/05:00pm 15.9 16.5 11.9 77 2.2 CALM 0 0 0 0 1021.1 1021.3 0.0
24/04:30pm 16.3 15.9 11.2 72 2.8 W 4 7 2 4 1020.9 - 0.0
24/04:00pm 16.3 16.3 11.0 71 2.9 N 2 7 1 4 1020.8 1021.0 0.0
24/03:30pm 16.4 15.0 10.9 70 3.0 W 9 13 5 7 1020.8 - 0.0
24/03:00pm 16.9 14.4 11.0 68 3.2 W 15 19 8 10 1020.6 1020.8 0.0
24/02:30pm 16.2 12.7 10.3 68 3.1 W 19 24 10 13 1020.7 - 0.0
24/02:00pm 16.8 14.5 10.6 67 3.3 WSW 13 19 7 10 1020.7 1020.9 0.0
24/01:30pm 16.4 14.1 10.5 68 3.2 WSW 13 20 7 11 1020.8 - 0.0
24/01:00pm 16.2 14.0 10.7 70 2.9 WSW 13 20 7 11 1021.2 1021.4 0.0
24/12:30pm 15.3 13.2 9.7 69 2.9 SW 11 17 6 9 1021.6 - 0.0
24/12:00pm 14.9 11.7 9.9 72 2.6 SW 17 24 9 13 1022.1 1022.3 0.0
24/11:30am 14.9 11.9 10.5 75 2.3 SW 17 20 9 11 1022.4 - 0.0
24/11:00am 14.4 12.5 10.6 78 2.0 SW 11 15 6 8 1022.6 1022.8 0.0
24/10:30am 13.7 11.4 11.6 87 1.1 S 15 24 8 13 1022.7 - 0.0
24/10:00am 13.3 12.5 12.8 97 0.3 SSW 9 13 5 7 1022.8 1023.0 0.0
24/09:30am 12.2 10.6 11.7 97 0.3 W 11 15 6 8 1022.8 - 0.0
24/09:00am 11.5 9.4 11.2 98 0.2 WNW 13 17 7 9 1022.4 1022.6 0.2
24/08:30am 10.5 8.8 10.0 97 0.3 W 9 13 5 7 1022.0 - 0.2
24/08:00am 10.3 8.2 9.8 97 0.3 SW 11 15 6 8 1021.9 1022.1 0.0
24/07:30am 10.5 8.5 10.0 97 0.3 WNW 11 15 6 8 1021.2 - 0.0
24/07:00am 10.2 7.7 9.7 97 0.3 NW 13 15 7 8 1020.9 1021.1 0.0
24/06:30am 9.8 7.6 9.3 97 0.3 W 11 15 6 8 1020.8 - 0.0
24/06:00am 9.6 7.3 9.1 97 0.2 WNW 11 15 6 8 1020.6 1020.8 0.0
24/05:30am 9.2 6.4 8.7 97 0.2 NW 13 17 7 9 1020.4 - 0.0
24/05:00am 9.0 6.6 8.5 97 0.2 NNW 11 15 6 8 1020.3 1020.4 0.0
24/04:30am 8.8 6.3 8.4 97 0.2 WNW 11 15 6 8 1020.4 - 0.0
24/04:00am 8.7 7.0 8.3 97 0.2 WNW 7 11 4 6 1020.5 1020.7 0.0
24/03:30am 8.6 6.5 8.2 97 0.2 WNW 9 11 5 6 1020.5 - 0.0
24/03:00am 8.4 5.9 8.0 97 0.2 NW 11 15 6 8 1020.7 1020.9 0.0
24/02:30am 8.3 5.3 7.9 97 0.2 NNW 13 19 7 10 1020.8 - 0.0
24/02:00am 8.1 5.1 7.5 96 0.3 WNW 13 20 7 11 1020.9 1021.1 0.0
24/01:30am 7.4 4.6 6.8 96 0.3 WNW 11 15 6 8 1020.7 - 0.0
24/01:00am 7.4 4.6 6.8 96 0.3 W 11 13 6 7 1020.6 1020.8 0.0
24/12:30am 6.6 4.5 6.0 96 0.3 W 6 7 3 4 1020.8 - 0.0
24/12:00am 6.4 4.1 5.8 96 0.3 W 7 9 4 5 1021.0 1021.2 0.0
 
Date/Time
WST
Temp
°C
App
Temp
°C
Dew
Point
Rel
Hum
%
Delta-T
°C
Wind Press
QNH
hPa
Press
MSL
hPa
Rain
since 9 am
mm
Dir
 
Spd
km/h
Gust
km/h
Spd
kts
Gust
kts
23/11:30pm 6.9 4.7 6.2 95 0.3 W 7 9 4 5 1021.4 - 0.0
23/11:00pm 6.9 4.3 6.2 95 0.3 W 9 13 5 7 1021.5 1021.7 0.0
23/10:30pm 6.9 3.9 6.2 95 0.3 WNW 11 11 6 6 1021.6 - 0.0
23/10:00pm 7.5 5.6 6.8 95 0.3 NNW 6 7 3 4 1021.8 1022.0 0.0
23/09:30pm 7.7 5.3 6.8 94 0.4 NNW 9 11 5 6 1021.7 - 0.0
23/09:00pm 7.9 5.1 7.0 94 0.4 NNW 11 13 6 7 1021.8 1022.0 0.0
23/08:30pm 8.6 6.0 7.7 94 0.4 N 11 15 6 8 1021.8 - 0.0
23/08:00pm 9.1 6.2 8.0 93 0.5 N 13 15 7 8 1021.7 1021.9 0.0
23/07:30pm 9.2 6.7 8.0 92 0.6 N 11 15 6 8 1021.5 - 0.0
23/07:00pm 9.7 6.8 8.3 91 0.7 N 13 17 7 9 1021.1 1021.3 0.0
23/06:30pm 9.8 6.9 8.1 89 0.8 NNW 13 15 7 8 1021.0 - 0.0
23/06:00pm 10.7 8.7 8.5 86 1.1 N 9 13 5 7 1021.1 1021.3 0.0
23/05:30pm 11.8 9.9 9.0 83 1.4 N 9 11 5 6 1020.9 - 0.0
23/05:00pm 12.4 9.7 9.1 80 1.7 N 13 15 7 8 1020.8 1021.0 0.0
23/04:30pm 12.8 10.0 8.5 75 2.2 NW 13 19 7 10 1020.7 - 0.0
23/04:00pm 13.7 10.2 8.7 72 2.5 WNW 17 22 9 12 1020.7 1020.9 0.0
23/03:30pm 13.3 10.1 8.4 72 2.5 NW 15 20 8 11 1020.8 - 0.0
23/03:00pm 12.9 9.4 8.6 75 2.2 W 17 22 9 12 1021.0 1021.2 0.0
23/02:30pm 13.0 9.7 8.1 72 2.5 WNW 15 20 8 11 1021.1 - 0.0
23/02:00pm 13.0 9.5 8.9 76 2.1 NNW 17 24 9 13 1021.0 1021.2 0.0
23/01:30pm 12.7 8.6 7.8 72 2.4 W 19 24 10 13 1021.2 - 0.0
23/01:00pm 12.8 9.2 8.3 74 2.2 W 17 24 9 13 1021.4 1021.6 0.0
23/12:30pm 12.4 9.4 7.7 73 2.3 W 13 20 7 11 1021.8 - 0.0
23/12:00pm 11.9 8.9 7.8 76 2.0 W 13 19 7 10 1022.2 1022.4 0.0
23/11:30am 11.4 7.7 7.9 79 1.7 W 17 20 9 11 1022.6 - 0.0
23/11:00am 10.8 8.1 8.9 88 0.9 W 13 20 7 11 1023.2 1023.4 0.0
23/10:30am 9.4 7.8 8.8 96 0.3 SW 7 11 4 6 1023.2 - 0.0
23/10:00am 8.9 8.2 8.5 97 0.2 S 2 6 1 3 1023.1 1023.3 0.0
23/09:30am 7.9 7.3 7.5 97 0.2 CALM 0 0 0 0 1023.1 - 0.0
23/09:00am 6.6 5.7 6.2 97 0.2 CALM 0 0 0 0 1023.2 1023.4 0.4
23/08:30am 5.0 3.8 4.4 96 0.3 CALM 0 0 0 0 1023.2 - 0.4
23/08:00am 4.1 1.6 3.5 96 0.2 WSW 6 7 3 4 1022.8 1023.0 0.4
23/07:30am 3.4 0.5 2.8 96 0.2 W 7 7 4 4 1022.5 - 0.4
23/07:00am 3.5 0.7 2.9 96 0.2 W 7 9 4 5 1022.5 1022.7 0.4
23/06:30am 4.3 1.6 3.7 96 0.3 N 7 9 4 5 1022.2 - 0.4
23/06:00am 4.1 1.0 3.5 96 0.2 N 9 11 5 6 1021.8 1022.0 0.4
23/05:30am 4.3 1.6 3.7 96 0.3 N 7 9 4 5 1021.4 - 0.4
23/05:00am 5.2 4.0 4.6 96 0.3 CALM 0 0 0 0 1021.4 1021.6 0.4
23/04:30am 6.0 2.9 5.4 96 0.3 SW 11 15 6 8 1021.4 - 0.4
23/04:00am 6.6 4.0 6.0 96 0.3 WSW 9 11 5 6 1021.7 1021.9 0.4
23/03:30am 5.3 2.4 4.7 96 0.3 W 9 11 5 6 1021.8 - 0.4
23/03:00am 4.6 1.2 4.0 96 0.3 WNW 11 11 6 6 1021.4 1021.6 0.2
23/02:30am 4.9 2.5 4.3 96 0.3 N 6 7 3 4 1021.3 - 0.2
23/02:00am 4.7 2.1 4.0 95 0.3 NW 7 11 4 6 1021.3 1021.5 0.2
23/01:30am 5.3 2.4 4.6 95 0.3 WNW 9 11 5 6 1021.1 - 0.2
23/01:00am 5.6 3.7 4.9 95 0.3 WNW 4 7 2 4 1021.1 1021.3 0.2
23/12:30am 6.4 3.4 5.8 96 0.3 W 11 13 6 7 1020.9 - 0.2
23/12:00am 6.9 3.2 6.2 95 0.3 WNW 15 17 8 9 1020.9 1021.1 0.2
 
Date/Time
WST
Temp
°C
App
Temp
°C
Dew
Point
Rel
Hum
%
Delta-T
°C
Wind Press
QNH
hPa
Press
MSL
hPa
Rain
since 9 am
mm
Dir
 
Spd
km/h
Gust
km/h
Spd
kts
Gust
kts
22/11:30pm 6.6 2.8 5.9 95 0.3 WNW 15 15 8 8 1021.1 - 0.2
22/11:00pm 6.2 3.1 5.5 95 0.3 WNW 11 13 6 7 1021.2 1021.4 0.2
22/10:30pm 6.3 3.6 5.6 95 0.3 N 9 11 5 6 1021.0 - 0.2
22/10:00pm 6.6 3.5 5.7 94 0.4 WNW 11 11 6 6 1021.1 1021.3 0.2
22/09:30pm 7.1 3.8 6.2 94 0.4 WNW 13 13 7 7 1021.1 - 0.2
22/09:00pm 7.2 3.8 6.1 93 0.5 WNW 13 15 7 8 1020.9 1021.1 0.2
22/08:30pm 6.9 4.2 5.7 92 0.5 WNW 9 11 5 6 1020.6 - 0.2
22/08:00pm 8.2 5.4 7.0 92 0.6 W 11 13 6 7 1020.4 1020.5 0.2
22/07:30pm 8.9 5.9 7.5 91 0.7 W 13 17 7 9 1020.1 - 0.2
22/07:00pm 9.6 5.9 8.0 90 0.8 W 17 20 9 11 1019.7 1019.8 0.2
22/06:30pm 9.4 5.6 7.5 88 0.9 W 17 19 9 10 1019.5 - 0.2
22/06:00pm 10.6 5.9 7.8 83 1.4 W 22 28 12 15 1018.9 1019.1 0.2
22/05:30pm 10.7 6.5 8.1 84 1.3 W 20 24 11 13 1018.4 - 0.2
22/05:00pm 11.2 7.7 8.6 84 1.3 W 17 20 9 11 1018.2 1018.4 0.2
22/04:30pm 11.4 6.7 9.1 86 1.2 WSW 24 32 13 17 1018.1 - 0.2
22/04:12pm 11.6 3.8 8.1 79 1.7 SW 39 48 21 26 1018.0 - 0.0
22/04:00pm 13.9 8.4 7.7 66 3.1 W 26 43 14 23 1017.5 1017.7 0.0
22/03:30pm 14.8 9.9 8.3 65 3.3 W 24 30 13 16 1017.2 - 0.0
22/03:00pm 14.5 9.2 8.5 67 3.1 W 26 33 14 18 1016.8 1017.0 0.0

Other Formats:

Comma delimited format used in spreadsheet applications
http://www.bom.gov.au/fwo/IDW60801/IDW60801.95625.axf

JavaScript Object Notation format (JSON) in row-major order
http://www.bom.gov.au/fwo/IDW60801/IDW60801.95625.json